Terminal Aerodrome Forecast
Issued by NWS

Home | Current Version | Previous Version | Text Only | Print | Product List | Glossary On
Versions: 1 2 3 4 5 6 7 8 9 10 11 12 13
087
FTUS45 KGGW 251128 CCA
TAFSDY
TAF COR
KSDY 251128Z 2512/2612 31010KT P6SM BKN080
     FM251400 28007KT P6SM SCT070
     FM260600 21004KT P6SM BKN120=

USA.gov is the U.S. government's official web portal to all federal, state and local government web resources and services.